sensor_id;sensor_type;location;lat;lon;timestamp;P1;durP1;ratioP1;P2;durP2;ratioP2
27375;SDS011;14844;51.302;6.354;2023-12-20T00:00:15;52.78;;;23.80;;
27375;SDS011;14844;51.302;6.354;2023-12-20T00:02:41;56.78;;;22.52;;
27375;SDS011;14844;51.302;6.354;2023-12-20T00:05:12;56.47;;;22.30;;
27375;SDS011;14844;51.302;6.354;2023-12-20T00:07:39;57.35;;;21.10;;
27375;SDS011;14844;51.302;6.354;2023-12-20T00:10:06;52.08;;;20.55;;
27375;SDS011;14844;51.302;6.354;2023-12-20T00:12:34;54.20;;;20.52;;
27375;SDS011;14844;51.302;6.354;2023-12-20T01:04:34;63.95;;;30.58;;
27375;SDS011;14844;51.302;6.354;2023-12-20T01:07:23;64.53;;;31.70;;
27375;SDS011;14844;51.302;6.354;2023-12-20T02:16:52;41.63;;;8.00;;
27375;SDS011;14844;51.302;6.354;2023-12-20T02:40:03;35.58;;;6.05;;
27375;SDS011;14844;51.302;6.354;2023-12-20T03:21:48;24.45;;;5.18;;
27375;SDS011;14844;51.302;6.354;2023-12-20T03:42:09;34.58;;;6.32;;
27375;SDS011;14844;51.302;6.354;2023-12-20T03:45:19;35.45;;;7.30;;
27375;SDS011;14844;51.302;6.354;2023-12-20T04:05:08;41.60;;;9.93;;
27375;SDS011;14844;51.302;6.354;2023-12-20T04:33:39;57.42;;;11.85;;
27375;SDS011;14844;51.302;6.354;2023-12-20T04:36:26;42.50;;;10.30;;
27375;SDS011;14844;51.302;6.354;2023-12-20T04:46:00;39.45;;;11.27;;
27375;SDS011;14844;51.302;6.354;2023-12-20T04:55:10;37.95;;;10.63;;
27375;SDS011;14844;51.302;6.354;2023-12-20T04:57:38;48.35;;;11.02;;
27375;SDS011;14844;51.302;6.354;2023-12-20T05:00:06;53.05;;;11.80;;
27375;SDS011;14844;51.302;6.354;2023-12-20T05:02:33;39.22;;;10.52;;
27375;SDS011;14844;51.302;6.354;2023-12-20T05:05:00;39.63;;;10.35;;
27375;SDS011;14844;51.302;6.354;2023-12-20T05:07:26;37.00;;;10.48;;
27375;SDS011;14844;51.302;6.354;2023-12-20T05:09:51;38.90;;;10.27;;
27375;SDS011;14844;51.302;6.354;2023-12-20T05:15:34;45.22;;;11.07;;
27375;SDS011;14844;51.302;6.354;2023-12-20T05:18:38;43.70;;;11.52;;
27375;SDS011;14844;51.302;6.354;2023-12-20T05:21:23;34.88;;;10.27;;
27375;SDS011;14844;51.302;6.354;2023-12-20T05:24:44;34.10;;;9.68;;
27375;SDS011;14844;51.302;6.354;2023-12-20T05:37:58;38.92;;;9.57;;
27375;SDS011;14844;51.302;6.354;2023-12-20T05:55:02;45.67;;;9.57;;
27375;SDS011;14844;51.302;6.354;2023-12-20T05:57:30;37.97;;;8.57;;
27375;SDS011;14844;51.302;6.354;2023-12-20T06:09:15;40.33;;;6.95;;
27375;SDS011;14844;51.302;6.354;2023-12-20T06:15:21;42.70;;;7.28;;
27375;SDS011;14844;51.302;6.354;2023-12-20T06:18:18;26.60;;;6.13;;
27375;SDS011;14844;51.302;6.354;2023-12-20T06:24:13;33.22;;;6.32;;
27375;SDS011;14844;51.302;6.354;2023-12-20T06:26:46;27.05;;;6.68;;
27375;SDS011;14844;51.302;6.354;2023-12-20T06:29:20;32.05;;;6.47;;
27375;SDS011;14844;51.302;6.354;2023-12-20T06:31:53;33.67;;;6.47;;
27375;SDS011;14844;51.302;6.354;2023-12-20T06:34:23;29.55;;;7.05;;
27375;SDS011;14844;51.302;6.354;2023-12-20T06:36:49;36.38;;;7.43;;
27375;SDS011;14844;51.302;6.354;2023-12-20T06:39:17;37.38;;;6.60;;
27375;SDS011;14844;51.302;6.354;2023-12-20T06:41:43;28.85;;;6.07;;
27375;SDS011;14844;51.302;6.354;2023-12-20T06:44:09;29.60;;;6.93;;
27375;SDS011;14844;51.302;6.354;2023-12-20T06:46:34;32.53;;;7.07;;
27375;SDS011;14844;51.302;6.354;2023-12-20T06:49:03;32.70;;;6.78;;
27375;SDS011;14844;51.302;6.354;2023-12-20T06:51:29;28.75;;;6.32;;
27375;SDS011;14844;51.302;6.354;2023-12-20T06:53:55;28.02;;;6.63;;
27375;SDS011;14844;51.302;6.354;2023-12-20T06:56:21;26.38;;;5.38;;
27375;SDS011;14844;51.302;6.354;2023-12-20T06:58:47;29.13;;;5.88;;
27375;SDS011;14844;51.302;6.354;2023-12-20T07:01:13;31.80;;;6.15;;
27375;SDS011;14844;51.302;6.354;2023-12-20T07:03:40;33.65;;;5.85;;
27375;SDS011;14844;51.302;6.354;2023-12-20T07:06:06;36.78;;;5.90;;
27375;SDS011;14844;51.302;6.354;2023-12-20T07:08:31;34.05;;;6.18;;
27375;SDS011;14844;51.302;6.354;2023-12-20T07:10:57;25.27;;;5.80;;
27375;SDS011;14844;51.302;6.354;2023-12-20T07:13:23;30.08;;;5.47;;
27375;SDS011;14844;51.302;6.354;2023-12-20T07:15:48;20.45;;;5.72;;
27375;SDS011;14844;51.302;6.354;2023-12-20T07:18:14;26.00;;;6.13;;
27375;SDS011;14844;51.302;6.354;2023-12-20T07:20:40;28.52;;;6.95;;
27375;SDS011;14844;51.302;6.354;2023-12-20T07:23:05;25.60;;;6.72;;
27375;SDS011;14844;51.302;6.354;2023-12-20T07:25:47;33.88;;;7.03;;
27375;SDS011;14844;51.302;6.354;2023-12-20T07:28:12;34.33;;;7.35;;
27375;SDS011;14844;51.302;6.354;2023-12-20T07:30:38;33.17;;;7.50;;
27375;SDS011;14844;51.302;6.354;2023-12-20T07:33:04;35.70;;;7.40;;
27375;SDS011;14844;51.302;6.354;2023-12-20T07:35:32;31.38;;;7.80;;
27375;SDS011;14844;51.302;6.354;2023-12-20T07:37:58;30.42;;;6.85;;
27375;SDS011;14844;51.302;6.354;2023-12-20T07:40:23;34.20;;;6.93;;
27375;SDS011;14844;51.302;6.354;2023-12-20T07:42:49;22.70;;;6.30;;
27375;SDS011;14844;51.302;6.354;2023-12-20T07:45:15;44.92;;;7.53;;
27375;SDS011;14844;51.302;6.354;2023-12-20T07:47:46;34.55;;;7.55;;
27375;SDS011;14844;51.302;6.354;2023-12-20T07:50:41;34.63;;;7.03;;
27375;SDS011;14844;51.302;6.354;2023-12-20T07:56:26;31.38;;;6.97;;
27375;SDS011;14844;51.302;6.354;2023-12-20T07:59:27;32.05;;;6.68;;
27375;SDS011;14844;51.302;6.354;2023-12-20T08:01:56;34.42;;;6.97;;
27375;SDS011;14844;51.302;6.354;2023-12-20T08:04:36;26.63;;;6.63;;
27375;SDS011;14844;51.302;6.354;2023-12-20T08:07:06;24.00;;;7.00;;
27375;SDS011;14844;51.302;6.354;2023-12-20T08:13:24;30.33;;;6.68;;
27375;SDS011;14844;51.302;6.354;2023-12-20T08:15:53;27.88;;;6.45;;
27375;SDS011;14844;51.302;6.354;2023-12-20T08:21:32;34.03;;;6.53;;
27375;SDS011;14844;51.302;6.354;2023-12-20T08:24:16;33.38;;;6.30;;
27375;SDS011;14844;51.302;6.354;2023-12-20T08:27:06;38.97;;;5.13;;
27375;SDS011;14844;51.302;6.354;2023-12-20T08:29:34;26.40;;;5.63;;
27375;SDS011;14844;51.302;6.354;2023-12-20T08:35:06;26.92;;;6.40;;
27375;SDS011;14844;51.302;6.354;2023-12-20T08:40:23;31.70;;;5.93;;
27375;SDS011;14844;51.302;6.354;2023-12-20T08:43:12;29.25;;;5.90;;
27375;SDS011;14844;51.302;6.354;2023-12-20T08:45:46;27.17;;;5.50;;
27375;SDS011;14844;51.302;6.354;2023-12-20T08:48:19;30.85;;;5.82;;
27375;SDS011;14844;51.302;6.354;2023-12-20T08:53:56;27.77;;;5.10;;
27375;SDS011;14844;51.302;6.354;2023-12-20T08:56:56;29.23;;;4.93;;
27375;SDS011;14844;51.302;6.354;2023-12-20T08:59:42;24.83;;;5.28;;
27375;SDS011;14844;51.302;6.354;2023-12-20T09:02:17;38.78;;;6.45;;
27375;SDS011;14844;51.302;6.354;2023-12-20T09:07:37;31.17;;;5.57;;
27375;SDS011;14844;51.302;6.354;2023-12-20T09:10:14;27.63;;;5.38;;
27375;SDS011;14844;51.302;6.354;2023-12-20T09:12:48;28.98;;;5.22;;
27375;SDS011;14844;51.302;6.354;2023-12-20T09:18:43;24.67;;;4.78;;
27375;SDS011;14844;51.302;6.354;2023-12-20T09:21:31;28.48;;;4.90;;
27375;SDS011;14844;51.302;6.354;2023-12-20T09:24:33;29.23;;;5.38;;
27375;SDS011;14844;51.302;6.354;2023-12-20T09:27:09;30.40;;;5.95;;
27375;SDS011;14844;51.302;6.354;2023-12-20T09:33:03;27.50;;;4.60;;
27375;SDS011;14844;51.302;6.354;2023-12-20T09:35:53;29.42;;;5.03;;
27375;SDS011;14844;51.302;6.354;2023-12-20T09:38:48;24.92;;;5.25;;
27375;SDS011;14844;51.302;6.354;2023-12-20T09:41:20;31.00;;;4.80;;
27375;SDS011;14844;51.302;6.354;2023-12-20T09:43:48;26.52;;;4.45;;
27375;SDS011;14844;51.302;6.354;2023-12-20T09:46:15;22.50;;;4.85;;
27375;SDS011;14844;51.302;6.354;2023-12-20T09:48:53;27.48;;;5.45;;
27375;SDS011;14844;51.302;6.354;2023-12-20T09:51:31;21.83;;;4.85;;
27375;SDS011;14844;51.302;6.354;2023-12-20T09:54:20;27.38;;;5.30;;
27375;SDS011;14844;51.302;6.354;2023-12-20T09:56:55;26.05;;;4.78;;
27375;SDS011;14844;51.302;6.354;2023-12-20T09:59:30;25.70;;;4.22;;
27375;SDS011;14844;51.302;6.354;2023-12-20T10:02:07;22.52;;;4.15;;
27375;SDS011;14844;51.302;6.354;2023-12-20T10:04:42;24.42;;;4.63;;
27375;SDS011;14844;51.302;6.354;2023-12-20T10:07:37;20.85;;;3.97;;
27375;SDS011;14844;51.302;6.354;2023-12-20T10:10:03;28.58;;;5.07;;
27375;SDS011;14844;51.302;6.354;2023-12-20T10:15:30;20.55;;;3.92;;
27375;SDS011;14844;51.302;6.354;2023-12-20T10:18:05;27.90;;;4.75;;
27375;SDS011;14844;51.302;6.354;2023-12-20T10:20:34;24.05;;;4.25;;
27375;SDS011;14844;51.302;6.354;2023-12-20T10:23:02;26.38;;;5.38;;
27375;SDS011;14844;51.302;6.354;2023-12-20T10:25:31;22.45;;;4.25;;
27375;SDS011;14844;51.302;6.354;2023-12-20T10:28:18;28.27;;;4.78;;
27375;SDS011;14844;51.302;6.354;2023-12-20T10:30:55;25.85;;;4.70;;
27375;SDS011;14844;51.302;6.354;2023-12-20T10:33:30;22.27;;;4.15;;
27375;SDS011;14844;51.302;6.354;2023-12-20T10:35:59;20.80;;;3.75;;
27375;SDS011;14844;51.302;6.354;2023-12-20T10:38:33;26.48;;;5.50;;
27375;SDS011;14844;51.302;6.354;2023-12-20T10:41:34;29.92;;;4.75;;
27375;SDS011;14844;51.302;6.354;2023-12-20T10:44:07;30.42;;;4.57;;
27375;SDS011;14844;51.302;6.354;2023-12-20T10:50:25;26.52;;;4.22;;
27375;SDS011;14844;51.302;6.354;2023-12-20T10:53:34;20.25;;;4.00;;
27375;SDS011;14844;51.302;6.354;2023-12-20T10:56:24;25.42;;;5.03;;
27375;SDS011;14844;51.302;6.354;2023-12-20T11:01:52;22.48;;;4.97;;
27375;SDS011;14844;51.302;6.354;2023-12-20T11:09:39;20.50;;;4.03;;
27375;SDS011;14844;51.302;6.354;2023-12-20T11:12:17;28.60;;;4.68;;
27375;SDS011;14844;51.302;6.354;2023-12-20T11:17:18;27.42;;;4.03;;
27375;SDS011;14844;51.302;6.354;2023-12-20T11:22:26;20.50;;;4.05;;
27375;SDS011;14844;51.302;6.354;2023-12-20T11:24:53;32.63;;;4.95;;
27375;SDS011;14844;51.302;6.354;2023-12-20T11:27:20;24.75;;;3.95;;
27375;SDS011;14844;51.302;6.354;2023-12-20T11:29:53;29.25;;;4.53;;
27375;SDS011;14844;51.302;6.354;2023-12-20T11:34:53;20.38;;;4.03;;
27375;SDS011;14844;51.302;6.354;2023-12-20T11:37:20;22.73;;;3.58;;
27375;SDS011;14844;51.302;6.354;2023-12-20T11:39:54;23.90;;;3.92;;
27375;SDS011;14844;51.302;6.354;2023-12-20T11:42:21;24.23;;;4.22;;
27375;SDS011;14844;51.302;6.354;2023-12-20T11:44:47;24.00;;;4.28;;
27375;SDS011;14844;51.302;6.354;2023-12-20T11:47:13;19.70;;;4.13;;
27375;SDS011;14844;51.302;6.354;2023-12-20T11:49:40;25.45;;;4.95;;
27375;SDS011;14844;51.302;6.354;2023-12-20T11:52:06;22.02;;;4.03;;
27375;SDS011;14844;51.302;6.354;2023-12-20T11:54:32;24.13;;;4.00;;
27375;SDS011;14844;51.302;6.354;2023-12-20T11:56:57;25.20;;;4.78;;
27375;SDS011;14844;51.302;6.354;2023-12-20T11:59:23;25.80;;;4.40;;
27375;SDS011;14844;51.302;6.354;2023-12-20T12:01:49;21.60;;;4.53;;
27375;SDS011;14844;51.302;6.354;2023-12-20T12:04:16;26.58;;;4.72;;
27375;SDS011;14844;51.302;6.354;2023-12-20T12:06:43;20.77;;;4.78;;
27375;SDS011;14844;51.302;6.354;2023-12-20T12:09:09;25.48;;;5.45;;
27375;SDS011;14844;51.302;6.354;2023-12-20T12:11:35;28.20;;;5.03;;
27375;SDS011;14844;51.302;6.354;2023-12-20T12:14:00;22.42;;;4.63;;
27375;SDS011;14844;51.302;6.354;2023-12-20T12:16:26;25.05;;;4.55;;
27375;SDS011;14844;51.302;6.354;2023-12-20T12:18:56;25.02;;;4.30;;
27375;SDS011;14844;51.302;6.354;2023-12-20T12:21:22;26.05;;;4.43;;
27375;SDS011;14844;51.302;6.354;2023-12-20T12:23:48;20.52;;;4.13;;
27375;SDS011;14844;51.302;6.354;2023-12-20T12:26:13;28.13;;;4.75;;
27375;SDS011;14844;51.302;6.354;2023-12-20T12:28:40;29.70;;;5.22;;
27375;SDS011;14844;51.302;6.354;2023-12-20T12:31:06;21.63;;;4.15;;
27375;SDS011;14844;51.302;6.354;2023-12-20T12:33:32;31.25;;;5.30;;
27375;SDS011;14844;51.302;6.354;2023-12-20T12:35:59;25.20;;;4.70;;
27375;SDS011;14844;51.302;6.354;2023-12-20T12:38:30;25.60;;;5.13;;
27375;SDS011;14844;51.302;6.354;2023-12-20T12:40:56;28.38;;;5.80;;
27375;SDS011;14844;51.302;6.354;2023-12-20T12:43:22;28.20;;;5.75;;
27375;SDS011;14844;51.302;6.354;2023-12-20T12:45:48;33.72;;;8.45;;
27375;SDS011;14844;51.302;6.354;2023-12-20T12:48:20;29.40;;;6.60;;
27375;SDS011;14844;51.302;6.354;2023-12-20T12:50:46;31.48;;;6.80;;
27375;SDS011;14844;51.302;6.354;2023-12-20T12:56:12;27.50;;;7.22;;
27375;SDS011;14844;51.302;6.354;2023-12-20T12:58:40;26.33;;;6.32;;
27375;SDS011;14844;51.302;6.354;2023-12-20T13:01:09;33.15;;;7.97;;
27375;SDS011;14844;51.302;6.354;2023-12-20T13:03:50;30.10;;;6.90;;
27375;SDS011;14844;51.302;6.354;2023-12-20T13:06:28;31.92;;;7.40;;
27375;SDS011;14844;51.302;6.354;2023-12-20T13:08:54;36.05;;;7.40;;
27375;SDS011;14844;51.302;6.354;2023-12-20T13:11:20;26.08;;;7.25;;
27375;SDS011;14844;51.302;6.354;2023-12-20T13:13:46;30.20;;;8.45;;
27375;SDS011;14844;51.302;6.354;2023-12-20T13:16:15;38.70;;;10.10;;
27375;SDS011;14844;51.302;6.354;2023-12-20T13:18:56;29.83;;;9.52;;
27375;SDS011;14844;51.302;6.354;2023-12-20T13:25:35;35.65;;;8.13;;
27375;SDS011;14844;51.302;6.354;2023-12-20T13:28:22;39.08;;;9.13;;
27375;SDS011;14844;51.302;6.354;2023-12-20T13:31:09;31.95;;;8.52;;
27375;SDS011;14844;51.302;6.354;2023-12-20T13:34:32;37.13;;;8.50;;
27375;SDS011;14844;51.302;6.354;2023-12-20T13:36:58;33.08;;;9.50;;
27375;SDS011;14844;51.302;6.354;2023-12-20T13:39:34;31.85;;;9.18;;
27375;SDS011;14844;51.302;6.354;2023-12-20T13:42:06;29.70;;;8.80;;
27375;SDS011;14844;51.302;6.354;2023-12-20T13:44:32;28.00;;;7.43;;
27375;SDS011;14844;51.302;6.354;2023-12-20T13:46:59;26.50;;;7.70;;
27375;SDS011;14844;51.302;6.354;2023-12-20T13:49:24;31.23;;;7.40;;
27375;SDS011;14844;51.302;6.354;2023-12-20T13:51:50;27.10;;;6.72;;
27375;SDS011;14844;51.302;6.354;2023-12-20T13:54:16;30.48;;;6.90;;
27375;SDS011;14844;51.302;6.354;2023-12-20T13:56:45;27.80;;;6.90;;
27375;SDS011;14844;51.302;6.354;2023-12-20T13:59:11;24.38;;;6.57;;
27375;SDS011;14844;51.302;6.354;2023-12-20T14:01:45;26.25;;;6.47;;
27375;SDS011;14844;51.302;6.354;2023-12-20T14:04:22;22.27;;;6.07;;
27375;SDS011;14844;51.302;6.354;2023-12-20T14:06:48;21.13;;;5.65;;
27375;SDS011;14844;51.302;6.354;2023-12-20T14:09:13;20.35;;;5.65;;
27375;SDS011;14844;51.302;6.354;2023-12-20T14:11:39;28.23;;;5.70;;
27375;SDS011;14844;51.302;6.354;2023-12-20T14:14:06;23.40;;;5.90;;
27375;SDS011;14844;51.302;6.354;2023-12-20T14:16:33;25.33;;;6.55;;
27375;SDS011;14844;51.302;6.354;2023-12-20T14:18:59;22.20;;;5.88;;
27375;SDS011;14844;51.302;6.354;2023-12-20T14:21:25;27.10;;;5.40;;
27375;SDS011;14844;51.302;6.354;2023-12-20T14:23:51;28.30;;;5.75;;
27375;SDS011;14844;51.302;6.354;2023-12-20T14:26:17;19.13;;;5.43;;
27375;SDS011;14844;51.302;6.354;2023-12-20T14:28:45;29.77;;;6.63;;
27375;SDS011;14844;51.302;6.354;2023-12-20T14:31:11;26.20;;;6.47;;
27375;SDS011;14844;51.302;6.354;2023-12-20T14:33:37;22.27;;;6.70;;
27375;SDS011;14844;51.302;6.354;2023-12-20T14:36:07;22.70;;;5.97;;
27375;SDS011;14844;51.302;6.354;2023-12-20T14:38:38;19.45;;;6.30;;
27375;SDS011;14844;51.302;6.354;2023-12-20T14:41:04;28.48;;;7.18;;
27375;SDS011;14844;51.302;6.354;2023-12-20T14:43:33;27.27;;;7.75;;
27375;SDS011;14844;51.302;6.354;2023-12-20T14:45:58;24.50;;;5.85;;
27375;SDS011;14844;51.302;6.354;2023-12-20T14:48:24;25.80;;;5.80;;
27375;SDS011;14844;51.302;6.354;2023-12-20T14:50:50;26.00;;;6.57;;
27375;SDS011;14844;51.302;6.354;2023-12-20T14:53:16;23.60;;;6.88;;
27375;SDS011;14844;51.302;6.354;2023-12-20T14:55:42;18.85;;;5.97;;
27375;SDS011;14844;51.302;6.354;2023-12-20T14:58:08;17.42;;;5.63;;
27375;SDS011;14844;51.302;6.354;2023-12-20T15:00:33;23.65;;;6.35;;
27375;SDS011;14844;51.302;6.354;2023-12-20T15:02:59;25.05;;;6.25;;
27375;SDS011;14844;51.302;6.354;2023-12-20T15:05:25;24.05;;;6.60;;
27375;SDS011;14844;51.302;6.354;2023-12-20T15:07:51;19.40;;;6.03;;
27375;SDS011;14844;51.302;6.354;2023-12-20T15:10:17;29.70;;;7.80;;
27375;SDS011;14844;51.302;6.354;2023-12-20T15:12:43;25.05;;;6.85;;
27375;SDS011;14844;51.302;6.354;2023-12-20T15:15:12;19.95;;;6.00;;
27375;SDS011;14844;51.302;6.354;2023-12-20T15:17:38;22.70;;;6.25;;
27375;SDS011;14844;51.302;6.354;2023-12-20T15:20:08;26.80;;;6.50;;
27375;SDS011;14844;51.302;6.354;2023-12-20T15:22:36;26.33;;;6.63;;
27375;SDS011;14844;51.302;6.354;2023-12-20T15:25:03;24.25;;;6.43;;
27375;SDS011;14844;51.302;6.354;2023-12-20T15:27:31;28.08;;;6.25;;
27375;SDS011;14844;51.302;6.354;2023-12-20T15:29:57;27.40;;;5.70;;
27375;SDS011;14844;51.302;6.354;2023-12-20T15:32:24;19.85;;;5.40;;
27375;SDS011;14844;51.302;6.354;2023-12-20T15:34:49;21.08;;;5.75;;
27375;SDS011;14844;51.302;6.354;2023-12-20T15:40:37;23.50;;;5.72;;
27375;SDS011;14844;51.302;6.354;2023-12-20T15:43:03;24.58;;;6.05;;
27375;SDS011;14844;51.302;6.354;2023-12-20T15:45:28;28.27;;;5.97;;
27375;SDS011;14844;51.302;6.354;2023-12-20T15:47:54;23.00;;;6.35;;
27375;SDS011;14844;51.302;6.354;2023-12-20T15:50:20;24.15;;;5.68;;
27375;SDS011;14844;51.302;6.354;2023-12-20T15:52:45;25.45;;;5.72;;
27375;SDS011;14844;51.302;6.354;2023-12-20T15:55:11;32.47;;;5.93;;
27375;SDS011;14844;51.302;6.354;2023-12-20T15:57:36;22.98;;;5.63;;
27375;SDS011;14844;51.302;6.354;2023-12-20T16:00:02;25.73;;;5.68;;
27375;SDS011;14844;51.302;6.354;2023-12-20T16:02:29;24.80;;;5.43;;
27375;SDS011;14844;51.302;6.354;2023-12-20T16:04:55;20.38;;;5.82;;
27375;SDS011;14844;51.302;6.354;2023-12-20T16:07:20;28.30;;;5.60;;
27375;SDS011;14844;51.302;6.354;2023-12-20T16:09:46;26.83;;;5.65;;
27375;SDS011;14844;51.302;6.354;2023-12-20T16:12:12;30.27;;;6.10;;
27375;SDS011;14844;51.302;6.354;2023-12-20T16:14:37;23.15;;;6.38;;
27375;SDS011;14844;51.302;6.354;2023-12-20T16:17:03;24.15;;;6.35;;
27375;SDS011;14844;51.302;6.354;2023-12-20T16:19:30;23.77;;;6.30;;
27375;SDS011;14844;51.302;6.354;2023-12-20T16:21:56;26.17;;;6.28;;
27375;SDS011;14844;51.302;6.354;2023-12-20T16:24:21;27.10;;;6.95;;
27375;SDS011;14844;51.302;6.354;2023-12-20T16:26:48;26.10;;;6.82;;
27375;SDS011;14844;51.302;6.354;2023-12-20T16:29:14;22.30;;;6.60;;
27375;SDS011;14844;51.302;6.354;2023-12-20T16:31:39;28.42;;;7.28;;
27375;SDS011;14844;51.302;6.354;2023-12-20T16:34:05;29.90;;;6.50;;
27375;SDS011;14844;51.302;6.354;2023-12-20T16:36:50;32.65;;;6.90;;
27375;SDS011;14844;51.302;6.354;2023-12-20T16:39:20;23.33;;;6.07;;
27375;SDS011;14844;51.302;6.354;2023-12-20T16:41:49;29.45;;;6.90;;
27375;SDS011;14844;51.302;6.354;2023-12-20T16:44:15;23.85;;;6.47;;
27375;SDS011;14844;51.302;6.354;2023-12-20T16:46:41;24.50;;;6.85;;
27375;SDS011;14844;51.302;6.354;2023-12-20T16:49:07;24.23;;;6.88;;
27375;SDS011;14844;51.302;6.354;2023-12-20T16:51:33;22.27;;;6.10;;
27375;SDS011;14844;51.302;6.354;2023-12-20T16:54:01;19.88;;;5.95;;
27375;SDS011;14844;51.302;6.354;2023-12-20T16:56:27;23.60;;;6.20;;
27375;SDS011;14844;51.302;6.354;2023-12-20T16:59:10;22.35;;;6.22;;
27375;SDS011;14844;51.302;6.354;2023-12-20T17:01:36;26.52;;;6.82;;
27375;SDS011;14844;51.302;6.354;2023-12-20T17:04:04;21.70;;;6.65;;
27375;SDS011;14844;51.302;6.354;2023-12-20T17:06:30;19.08;;;6.50;;
27375;SDS011;14844;51.302;6.354;2023-12-20T17:09:03;25.20;;;7.47;;
27375;SDS011;14844;51.302;6.354;2023-12-20T17:11:32;27.75;;;7.55;;
27375;SDS011;14844;51.302;6.354;2023-12-20T17:14:05;24.27;;;7.97;;
27375;SDS011;14844;51.302;6.354;2023-12-20T17:16:38;29.00;;;8.15;;
27375;SDS011;14844;51.302;6.354;2023-12-20T17:19:09;27.35;;;7.82;;
27375;SDS011;14844;51.302;6.354;2023-12-20T17:24:20;26.92;;;7.90;;
27375;SDS011;14844;51.302;6.354;2023-12-20T17:26:49;25.70;;;8.25;;
27375;SDS011;14844;51.302;6.354;2023-12-20T17:29:17;28.05;;;7.97;;
27375;SDS011;14844;51.302;6.354;2023-12-20T17:31:45;30.25;;;8.77;;
27375;SDS011;14844;51.302;6.354;2023-12-20T17:34:10;21.67;;;8.23;;
27375;SDS011;14844;51.302;6.354;2023-12-20T17:36:40;26.67;;;7.82;;
27375;SDS011;14844;51.302;6.354;2023-12-20T17:39:06;27.42;;;8.05;;
27375;SDS011;14844;51.302;6.354;2023-12-20T17:41:32;21.95;;;7.93;;
27375;SDS011;14844;51.302;6.354;2023-12-20T17:44:00;22.00;;;8.13;;
27375;SDS011;14844;51.302;6.354;2023-12-20T17:46:31;26.23;;;7.65;;
27375;SDS011;14844;51.302;6.354;2023-12-20T17:48:57;24.27;;;8.13;;
27375;SDS011;14844;51.302;6.354;2023-12-20T17:51:24;24.60;;;8.35;;
27375;SDS011;14844;51.302;6.354;2023-12-20T17:53:50;25.88;;;8.25;;
27375;SDS011;14844;51.302;6.354;2023-12-20T17:56:18;23.85;;;7.65;;
27375;SDS011;14844;51.302;6.354;2023-12-20T17:58:44;20.20;;;7.07;;
27375;SDS011;14844;51.302;6.354;2023-12-20T18:01:10;23.38;;;7.30;;
27375;SDS011;14844;51.302;6.354;2023-12-20T18:03:39;28.63;;;7.85;;
27375;SDS011;14844;51.302;6.354;2023-12-20T18:06:05;30.15;;;8.63;;
27375;SDS011;14844;51.302;6.354;2023-12-20T18:08:31;19.92;;;7.07;;
27375;SDS011;14844;51.302;6.354;2023-12-20T18:10:57;22.38;;;7.35;;
27375;SDS011;14844;51.302;6.354;2023-12-20T18:13:22;22.15;;;6.88;;
27375;SDS011;14844;51.302;6.354;2023-12-20T18:15:50;19.85;;;6.35;;
27375;SDS011;14844;51.302;6.354;2023-12-20T18:18:16;20.67;;;6.78;;
27375;SDS011;14844;51.302;6.354;2023-12-20T18:20:42;22.90;;;6.70;;
27375;SDS011;14844;51.302;6.354;2023-12-20T18:23:07;28.85;;;7.68;;
27375;SDS011;14844;51.302;6.354;2023-12-20T18:25:33;21.25;;;7.25;;
27375;SDS011;14844;51.302;6.354;2023-12-20T18:28:01;21.75;;;6.93;;
27375;SDS011;14844;51.302;6.354;2023-12-20T18:30:27;22.92;;;6.70;;
27375;SDS011;14844;51.302;6.354;2023-12-20T18:32:53;20.80;;;6.78;;
27375;SDS011;14844;51.302;6.354;2023-12-20T18:35:19;24.88;;;7.28;;
27375;SDS011;14844;51.302;6.354;2023-12-20T18:37:44;21.92;;;6.40;;
27375;SDS011;14844;51.302;6.354;2023-12-20T18:40:10;25.33;;;6.72;;
27375;SDS011;14844;51.302;6.354;2023-12-20T18:42:36;20.83;;;6.32;;
27375;SDS011;14844;51.302;6.354;2023-12-20T18:45:02;23.70;;;7.07;;
27375;SDS011;14844;51.302;6.354;2023-12-20T18:47:29;20.08;;;6.10;;
27375;SDS011;14844;51.302;6.354;2023-12-20T18:50:02;21.58;;;6.30;;
27375;SDS011;14844;51.302;6.354;2023-12-20T18:52:32;20.77;;;8.95;;
27375;SDS011;14844;51.302;6.354;2023-12-20T18:54:58;33.13;;;10.05;;
27375;SDS011;14844;51.302;6.354;2023-12-20T18:57:23;20.13;;;7.22;;
27375;SDS011;14844;51.302;6.354;2023-12-20T18:59:49;19.25;;;5.95;;
27375;SDS011;14844;51.302;6.354;2023-12-20T19:02:15;18.30;;;5.63;;
27375;SDS011;14844;51.302;6.354;2023-12-20T19:04:40;21.88;;;6.32;;
27375;SDS011;14844;51.302;6.354;2023-12-20T19:07:06;19.02;;;6.10;;
27375;SDS011;14844;51.302;6.354;2023-12-20T19:09:32;17.42;;;6.40;;
27375;SDS011;14844;51.302;6.354;2023-12-20T19:11:58;17.40;;;5.22;;
27375;SDS011;14844;51.302;6.354;2023-12-20T19:14:23;17.75;;;6.20;;
27375;SDS011;14844;51.302;6.354;2023-12-20T19:16:49;22.27;;;6.45;;
27375;SDS011;14844;51.302;6.354;2023-12-20T19:19:19;17.95;;;6.43;;
27375;SDS011;14844;51.302;6.354;2023-12-20T19:21:44;20.42;;;5.93;;
27375;SDS011;14844;51.302;6.354;2023-12-20T19:24:15;19.33;;;6.70;;
27375;SDS011;14844;51.302;6.354;2023-12-20T19:26:41;20.10;;;6.50;;
27375;SDS011;14844;51.302;6.354;2023-12-20T19:29:17;18.52;;;6.13;;
27375;SDS011;14844;51.302;6.354;2023-12-20T19:31:43;21.85;;;6.55;;
27375;SDS011;14844;51.302;6.354;2023-12-20T19:34:11;18.67;;;6.55;;
27375;SDS011;14844;51.302;6.354;2023-12-20T19:36:37;16.48;;;5.68;;
27375;SDS011;14844;51.302;6.354;2023-12-20T19:39:05;19.35;;;6.10;;
27375;SDS011;14844;51.302;6.354;2023-12-20T19:41:33;16.60;;;5.80;;
27375;SDS011;14844;51.302;6.354;2023-12-20T19:43:58;20.02;;;5.93;;
27375;SDS011;14844;51.302;6.354;2023-12-20T19:46:27;20.83;;;6.28;;
27375;SDS011;14844;51.302;6.354;2023-12-20T19:48:55;22.42;;;6.40;;
27375;SDS011;14844;51.302;6.354;2023-12-20T19:51:24;26.60;;;6.78;;
27375;SDS011;14844;51.302;6.354;2023-12-20T19:53:50;24.42;;;6.43;;
27375;SDS011;14844;51.302;6.354;2023-12-20T19:56:18;16.95;;;5.90;;
27375;SDS011;14844;51.302;6.354;2023-12-20T19:58:44;19.25;;;6.20;;
27375;SDS011;14844;51.302;6.354;2023-12-20T20:01:10;22.33;;;6.43;;
27375;SDS011;14844;51.302;6.354;2023-12-20T20:03:35;18.27;;;6.10;;
27375;SDS011;14844;51.302;6.354;2023-12-20T20:06:01;19.52;;;5.90;;
27375;SDS011;14844;51.302;6.354;2023-12-20T20:08:29;18.80;;;6.28;;
27375;SDS011;14844;51.302;6.354;2023-12-20T20:10:58;18.00;;;5.65;;
27375;SDS011;14844;51.302;6.354;2023-12-20T20:13:24;18.98;;;6.40;;
27375;SDS011;14844;51.302;6.354;2023-12-20T20:15:49;18.90;;;6.30;;
27375;SDS011;14844;51.302;6.354;2023-12-20T20:18:18;20.58;;;6.97;;
27375;SDS011;14844;51.302;6.354;2023-12-20T20:20:44;23.67;;;7.22;;
27375;SDS011;14844;51.302;6.354;2023-12-20T20:23:10;21.30;;;7.63;;
27375;SDS011;14844;51.302;6.354;2023-12-20T20:25:43;21.77;;;8.10;;
27375;SDS011;14844;51.302;6.354;2023-12-20T20:28:13;21.33;;;8.02;;
27375;SDS011;14844;51.302;6.354;2023-12-20T20:30:41;29.25;;;9.10;;
27375;SDS011;14844;51.302;6.354;2023-12-20T20:33:09;23.02;;;8.38;;
27375;SDS011;14844;51.302;6.354;2023-12-20T20:35:35;27.27;;;8.13;;
27375;SDS011;14844;51.302;6.354;2023-12-20T20:38:00;24.05;;;8.50;;
27375;SDS011;14844;51.302;6.354;2023-12-20T20:40:31;23.77;;;8.20;;
27375;SDS011;14844;51.302;6.354;2023-12-20T20:43:02;25.73;;;8.45;;
27375;SDS011;14844;51.302;6.354;2023-12-20T20:45:29;23.33;;;8.55;;
27375;SDS011;14844;51.302;6.354;2023-12-20T20:47:55;18.83;;;8.32;;
27375;SDS011;14844;51.302;6.354;2023-12-20T20:50:21;26.65;;;8.18;;